sensor_id;sensor_type;location;lat;lon;timestamp;P1;durP1;ratioP1;P2;durP2;ratioP2
18681;SDS011;9471;51.168;4.154;2022-08-20T00:01:48;15.48;;;6.97;;
18681;SDS011;9471;51.168;4.154;2022-08-20T00:04:15;18.77;;;7.32;;
18681;SDS011;9471;51.168;4.154;2022-08-20T00:06:43;17.48;;;6.88;;
18681;SDS011;9471;51.168;4.154;2022-08-20T00:09:10;23.90;;;8.45;;
18681;SDS011;9471;51.168;4.154;2022-08-20T00:11:37;18.95;;;8.23;;
18681;SDS011;9471;51.168;4.154;2022-08-20T00:14:05;16.30;;;8.13;;
18681;SDS011;9471;51.168;4.154;2022-08-20T00:16:33;17.83;;;8.32;;
18681;SDS011;9471;51.168;4.154;2022-08-20T00:19:03;17.70;;;8.25;;
18681;SDS011;9471;51.168;4.154;2022-08-20T00:21:31;19.98;;;6.75;;
18681;SDS011;9471;51.168;4.154;2022-08-20T00:24:01;17.83;;;7.25;;
18681;SDS011;9471;51.168;4.154;2022-08-20T00:26:29;21.67;;;6.30;;
18681;SDS011;9471;51.168;4.154;2022-08-20T00:28:56;21.83;;;6.95;;
18681;SDS011;9471;51.168;4.154;2022-08-20T00:31:23;16.60;;;5.32;;
18681;SDS011;9471;51.168;4.154;2022-08-20T00:33:50;17.85;;;5.90;;
18681;SDS011;9471;51.168;4.154;2022-08-20T00:36:18;22.20;;;5.60;;
18681;SDS011;9471;51.168;4.154;2022-08-20T00:38:46;20.90;;;6.57;;
18681;SDS011;9471;51.168;4.154;2022-08-20T00:41:16;22.80;;;6.35;;
18681;SDS011;9471;51.168;4.154;2022-08-20T00:43:46;21.92;;;5.70;;
18681;SDS011;9471;51.168;4.154;2022-08-20T00:46:17;20.20;;;5.35;;
18681;SDS011;9471;51.168;4.154;2022-08-20T00:48:47;17.90;;;5.78;;
18681;SDS011;9471;51.168;4.154;2022-08-20T00:51:20;18.85;;;5.72;;
18681;SDS011;9471;51.168;4.154;2022-08-20T00:53:52;23.98;;;5.60;;
18681;SDS011;9471;51.168;4.154;2022-08-20T00:56:21;20.95;;;5.80;;
18681;SDS011;9471;51.168;4.154;2022-08-20T00:58:49;21.60;;;6.35;;
18681;SDS011;9471;51.168;4.154;2022-08-20T01:01:19;17.48;;;5.30;;
18681;SDS011;9471;51.168;4.154;2022-08-20T01:03:47;17.27;;;5.45;;
18681;SDS011;9471;51.168;4.154;2022-08-20T01:06:17;16.83;;;6.05;;
18681;SDS011;9471;51.168;4.154;2022-08-20T01:08:44;21.08;;;6.43;;
18681;SDS011;9471;51.168;4.154;2022-08-20T01:11:11;18.45;;;6.10;;
18681;SDS011;9471;51.168;4.154;2022-08-20T01:13:42;19.92;;;6.78;;
18681;SDS011;9471;51.168;4.154;2022-08-20T01:16:13;18.45;;;6.65;;
18681;SDS011;9471;51.168;4.154;2022-08-20T01:18:44;21.35;;;7.07;;
18681;SDS011;9471;51.168;4.154;2022-08-20T01:21:13;27.75;;;8.02;;
18681;SDS011;9471;51.168;4.154;2022-08-20T01:23:45;19.48;;;7.22;;
18681;SDS011;9471;51.168;4.154;2022-08-20T01:26:18;19.55;;;7.30;;
18681;SDS011;9471;51.168;4.154;2022-08-20T01:28:48;19.98;;;6.53;;
18681;SDS011;9471;51.168;4.154;2022-08-20T01:31:19;23.90;;;7.18;;
18681;SDS011;9471;51.168;4.154;2022-08-20T01:33:47;24.15;;;7.60;;
18681;SDS011;9471;51.168;4.154;2022-08-20T01:36:15;18.85;;;6.70;;
18681;SDS011;9471;51.168;4.154;2022-08-20T01:38:46;21.75;;;6.90;;
18681;SDS011;9471;51.168;4.154;2022-08-20T01:41:32;21.20;;;7.00;;
18681;SDS011;9471;51.168;4.154;2022-08-20T01:44:08;21.58;;;6.75;;
18681;SDS011;9471;51.168;4.154;2022-08-20T01:46:37;18.83;;;6.28;;
18681;SDS011;9471;51.168;4.154;2022-08-20T01:49:08;17.67;;;6.43;;
18681;SDS011;9471;51.168;4.154;2022-08-20T01:51:38;22.17;;;6.90;;
18681;SDS011;9471;51.168;4.154;2022-08-20T01:54:05;21.88;;;7.43;;
18681;SDS011;9471;51.168;4.154;2022-08-20T01:56:34;21.23;;;6.82;;
18681;SDS011;9471;51.168;4.154;2022-08-20T01:59:15;22.83;;;6.65;;
18681;SDS011;9471;51.168;4.154;2022-08-20T02:01:42;26.50;;;6.75;;
18681;SDS011;9471;51.168;4.154;2022-08-20T02:04:09;23.52;;;6.97;;
18681;SDS011;9471;51.168;4.154;2022-08-20T02:06:37;23.13;;;6.75;;
18681;SDS011;9471;51.168;4.154;2022-08-20T02:09:07;22.17;;;6.68;;
18681;SDS011;9471;51.168;4.154;2022-08-20T02:11:37;20.40;;;7.72;;
18681;SDS011;9471;51.168;4.154;2022-08-20T02:14:05;20.13;;;7.82;;
18681;SDS011;9471;51.168;4.154;2022-08-20T02:16:35;25.60;;;7.72;;
18681;SDS011;9471;51.168;4.154;2022-08-20T02:19:06;25.08;;;6.85;;
18681;SDS011;9471;51.168;4.154;2022-08-20T02:21:37;22.38;;;7.13;;
18681;SDS011;9471;51.168;4.154;2022-08-20T02:24:08;23.15;;;7.25;;
18681;SDS011;9471;51.168;4.154;2022-08-20T02:26:35;21.38;;;6.53;;
18681;SDS011;9471;51.168;4.154;2022-08-20T02:29:05;22.58;;;7.00;;
18681;SDS011;9471;51.168;4.154;2022-08-20T02:31:34;22.48;;;7.13;;
18681;SDS011;9471;51.168;4.154;2022-08-20T02:34:02;21.95;;;6.45;;
18681;SDS011;9471;51.168;4.154;2022-08-20T02:36:30;21.60;;;6.55;;
18681;SDS011;9471;51.168;4.154;2022-08-20T02:38:57;19.20;;;6.38;;
18681;SDS011;9471;51.168;4.154;2022-08-20T02:41:24;26.95;;;6.82;;
18681;SDS011;9471;51.168;4.154;2022-08-20T02:43:51;26.27;;;6.75;;
18681;SDS011;9471;51.168;4.154;2022-08-20T02:46:19;18.17;;;7.30;;
18681;SDS011;9471;51.168;4.154;2022-08-20T02:48:46;25.08;;;6.95;;
18681;SDS011;9471;51.168;4.154;2022-08-20T02:51:13;23.08;;;6.78;;
18681;SDS011;9471;51.168;4.154;2022-08-20T02:53:40;21.95;;;5.97;;
18681;SDS011;9471;51.168;4.154;2022-08-20T02:56:08;25.88;;;7.47;;
18681;SDS011;9471;51.168;4.154;2022-08-20T02:58:36;27.60;;;7.47;;
18681;SDS011;9471;51.168;4.154;2022-08-20T03:01:05;22.08;;;6.50;;
18681;SDS011;9471;51.168;4.154;2022-08-20T03:03:35;21.10;;;6.45;;
18681;SDS011;9471;51.168;4.154;2022-08-20T03:06:02;17.85;;;6.35;;
18681;SDS011;9471;51.168;4.154;2022-08-20T03:08:29;27.58;;;7.18;;
18681;SDS011;9471;51.168;4.154;2022-08-20T03:10:56;25.83;;;6.95;;
18681;SDS011;9471;51.168;4.154;2022-08-20T03:13:23;27.25;;;6.65;;
18681;SDS011;9471;51.168;4.154;2022-08-20T03:15:52;24.45;;;7.10;;
18681;SDS011;9471;51.168;4.154;2022-08-20T03:18:21;24.40;;;6.93;;
18681;SDS011;9471;51.168;4.154;2022-08-20T03:20:50;24.95;;;6.97;;
18681;SDS011;9471;51.168;4.154;2022-08-20T03:23:18;22.70;;;6.72;;
18681;SDS011;9471;51.168;4.154;2022-08-20T03:25:46;23.60;;;6.45;;
18681;SDS011;9471;51.168;4.154;2022-08-20T03:28:14;24.23;;;6.82;;
18681;SDS011;9471;51.168;4.154;2022-08-20T03:30:41;28.08;;;6.95;;
18681;SDS011;9471;51.168;4.154;2022-08-20T03:33:09;23.00;;;7.00;;
18681;SDS011;9471;51.168;4.154;2022-08-20T03:35:36;20.67;;;6.97;;
18681;SDS011;9471;51.168;4.154;2022-08-20T03:38:06;23.42;;;6.90;;
18681;SDS011;9471;51.168;4.154;2022-08-20T03:40:35;26.63;;;7.13;;
18681;SDS011;9471;51.168;4.154;2022-08-20T03:43:04;26.90;;;6.53;;
18681;SDS011;9471;51.168;4.154;2022-08-20T03:45:33;20.45;;;7.00;;
18681;SDS011;9471;51.168;4.154;2022-08-20T03:48:01;21.88;;;7.18;;
18681;SDS011;9471;51.168;4.154;2022-08-20T03:50:30;28.13;;;7.43;;
18681;SDS011;9471;51.168;4.154;2022-08-20T03:52:57;24.92;;;8.05;;
18681;SDS011;9471;51.168;4.154;2022-08-20T03:55:27;25.08;;;6.80;;
18681;SDS011;9471;51.168;4.154;2022-08-20T03:57:57;26.73;;;7.20;;
18681;SDS011;9471;51.168;4.154;2022-08-20T04:00:27;26.40;;;7.38;;
18681;SDS011;9471;51.168;4.154;2022-08-20T04:03:01;26.20;;;7.95;;
18681;SDS011;9471;51.168;4.154;2022-08-20T04:05:28;24.85;;;7.50;;
18681;SDS011;9471;51.168;4.154;2022-08-20T04:07:57;26.23;;;7.78;;
18681;SDS011;9471;51.168;4.154;2022-08-20T04:10:25;23.98;;;7.57;;
18681;SDS011;9471;51.168;4.154;2022-08-20T04:12:53;28.92;;;8.30;;
18681;SDS011;9471;51.168;4.154;2022-08-20T04:15:20;22.33;;;7.80;;
18681;SDS011;9471;51.168;4.154;2022-08-20T04:17:48;22.98;;;7.22;;
18681;SDS011;9471;51.168;4.154;2022-08-20T04:20:17;26.40;;;7.57;;
18681;SDS011;9471;51.168;4.154;2022-08-20T04:22:47;27.10;;;7.95;;
18681;SDS011;9471;51.168;4.154;2022-08-20T04:25:14;26.67;;;7.97;;
18681;SDS011;9471;51.168;4.154;2022-08-20T04:27:42;23.30;;;8.10;;
18681;SDS011;9471;51.168;4.154;2022-08-20T04:30:10;25.73;;;8.32;;
18681;SDS011;9471;51.168;4.154;2022-08-20T04:32:39;26.08;;;8.00;;
18681;SDS011;9471;51.168;4.154;2022-08-20T04:35:07;25.80;;;8.18;;
18681;SDS011;9471;51.168;4.154;2022-08-20T04:37:39;24.45;;;8.63;;
18681;SDS011;9471;51.168;4.154;2022-08-20T04:40:07;24.80;;;7.70;;
18681;SDS011;9471;51.168;4.154;2022-08-20T04:42:54;25.85;;;8.13;;
18681;SDS011;9471;51.168;4.154;2022-08-20T04:45:22;25.55;;;8.65;;
18681;SDS011;9471;51.168;4.154;2022-08-20T04:47:49;23.42;;;7.75;;
18681;SDS011;9471;51.168;4.154;2022-08-20T04:50:18;28.30;;;8.65;;
18681;SDS011;9471;51.168;4.154;2022-08-20T04:52:45;28.08;;;8.82;;
18681;SDS011;9471;51.168;4.154;2022-08-20T04:55:13;27.45;;;8.35;;
18681;SDS011;9471;51.168;4.154;2022-08-20T04:57:41;30.52;;;9.60;;
18681;SDS011;9471;51.168;4.154;2022-08-20T05:00:13;29.13;;;9.73;;
18681;SDS011;9471;51.168;4.154;2022-08-20T05:02:42;28.95;;;8.70;;
18681;SDS011;9471;51.168;4.154;2022-08-20T05:05:10;28.00;;;8.88;;
18681;SDS011;9471;51.168;4.154;2022-08-20T05:07:38;26.30;;;8.93;;
18681;SDS011;9471;51.168;4.154;2022-08-20T05:10:10;27.33;;;9.27;;
18681;SDS011;9471;51.168;4.154;2022-08-20T05:12:39;24.67;;;9.63;;
18681;SDS011;9471;51.168;4.154;2022-08-20T05:15:07;32.03;;;9.43;;
18681;SDS011;9471;51.168;4.154;2022-08-20T05:17:36;27.25;;;9.55;;
18681;SDS011;9471;51.168;4.154;2022-08-20T05:20:05;28.60;;;9.52;;
18681;SDS011;9471;51.168;4.154;2022-08-20T05:22:33;29.23;;;10.35;;
18681;SDS011;9471;51.168;4.154;2022-08-20T05:25:01;26.83;;;10.65;;
18681;SDS011;9471;51.168;4.154;2022-08-20T05:27:28;26.98;;;9.45;;
18681;SDS011;9471;51.168;4.154;2022-08-20T05:29:58;28.05;;;10.02;;
18681;SDS011;9471;51.168;4.154;2022-08-20T05:32:26;26.90;;;10.15;;
18681;SDS011;9471;51.168;4.154;2022-08-20T05:34:55;29.05;;;10.48;;
18681;SDS011;9471;51.168;4.154;2022-08-20T05:37:22;28.13;;;10.23;;
18681;SDS011;9471;51.168;4.154;2022-08-20T05:39:49;31.55;;;10.40;;
18681;SDS011;9471;51.168;4.154;2022-08-20T05:42:16;31.58;;;10.20;;
18681;SDS011;9471;51.168;4.154;2022-08-20T05:44:43;27.08;;;10.23;;
18681;SDS011;9471;51.168;4.154;2022-08-20T05:47:11;27.02;;;10.48;;
18681;SDS011;9471;51.168;4.154;2022-08-20T05:49:39;34.20;;;11.73;;
18681;SDS011;9471;51.168;4.154;2022-08-20T05:52:07;28.92;;;10.57;;
18681;SDS011;9471;51.168;4.154;2022-08-20T05:54:34;28.50;;;10.45;;
18681;SDS011;9471;51.168;4.154;2022-08-20T05:57:02;29.63;;;11.32;;
18681;SDS011;9471;51.168;4.154;2022-08-20T05:59:29;32.67;;;10.95;;
18681;SDS011;9471;51.168;4.154;2022-08-20T06:01:58;30.30;;;11.55;;
18681;SDS011;9471;51.168;4.154;2022-08-20T06:04:25;28.27;;;10.48;;
18681;SDS011;9471;51.168;4.154;2022-08-20T06:06:52;29.73;;;11.40;;
18681;SDS011;9471;51.168;4.154;2022-08-20T06:09:22;27.70;;;11.35;;
18681;SDS011;9471;51.168;4.154;2022-08-20T06:11:51;32.38;;;11.75;;
18681;SDS011;9471;51.168;4.154;2022-08-20T06:14:18;29.95;;;13.05;;
18681;SDS011;9471;51.168;4.154;2022-08-20T06:16:46;28.08;;;11.65;;
18681;SDS011;9471;51.168;4.154;2022-08-20T06:19:13;30.88;;;12.85;;
18681;SDS011;9471;51.168;4.154;2022-08-20T06:21:40;34.63;;;12.02;;
18681;SDS011;9471;51.168;4.154;2022-08-20T06:24:07;27.90;;;12.63;;
18681;SDS011;9471;51.168;4.154;2022-08-20T06:26:36;31.95;;;12.43;;
18681;SDS011;9471;51.168;4.154;2022-08-20T06:29:03;30.85;;;13.32;;
18681;SDS011;9471;51.168;4.154;2022-08-20T06:31:31;30.55;;;14.13;;
18681;SDS011;9471;51.168;4.154;2022-08-20T06:33:59;27.60;;;13.95;;
18681;SDS011;9471;51.168;4.154;2022-08-20T06:36:26;33.00;;;13.43;;
18681;SDS011;9471;51.168;4.154;2022-08-20T06:38:53;27.30;;;14.20;;
18681;SDS011;9471;51.168;4.154;2022-08-20T06:41:22;32.90;;;14.07;;
18681;SDS011;9471;51.168;4.154;2022-08-20T06:43:51;35.63;;;13.98;;
18681;SDS011;9471;51.168;4.154;2022-08-20T06:46:18;27.67;;;13.93;;
18681;SDS011;9471;51.168;4.154;2022-08-20T06:48:48;32.67;;;13.88;;
18681;SDS011;9471;51.168;4.154;2022-08-20T06:51:16;30.13;;;13.05;;
18681;SDS011;9471;51.168;4.154;2022-08-20T06:53:44;28.58;;;12.18;;
18681;SDS011;9471;51.168;4.154;2022-08-20T06:56:12;27.30;;;12.77;;
18681;SDS011;9471;51.168;4.154;2022-08-20T06:58:39;26.15;;;12.90;;
18681;SDS011;9471;51.168;4.154;2022-08-20T07:01:08;24.65;;;12.18;;
18681;SDS011;9471;51.168;4.154;2022-08-20T07:03:36;28.10;;;13.25;;
18681;SDS011;9471;51.168;4.154;2022-08-20T07:06:05;25.98;;;12.18;;
18681;SDS011;9471;51.168;4.154;2022-08-20T07:08:33;24.50;;;12.07;;
18681;SDS011;9471;51.168;4.154;2022-08-20T07:11:00;24.83;;;12.35;;
18681;SDS011;9471;51.168;4.154;2022-08-20T07:13:28;27.98;;;12.25;;
18681;SDS011;9471;51.168;4.154;2022-08-20T07:15:55;23.40;;;12.13;;
18681;SDS011;9471;51.168;4.154;2022-08-20T07:18:23;32.08;;;11.98;;
18681;SDS011;9471;51.168;4.154;2022-08-20T07:20:50;22.27;;;11.20;;
18681;SDS011;9471;51.168;4.154;2022-08-20T07:23:20;24.95;;;12.02;;
18681;SDS011;9471;51.168;4.154;2022-08-20T07:25:48;25.92;;;11.60;;
18681;SDS011;9471;51.168;4.154;2022-08-20T07:28:16;30.42;;;10.68;;
18681;SDS011;9471;51.168;4.154;2022-08-20T07:30:44;22.15;;;9.93;;
18681;SDS011;9471;51.168;4.154;2022-08-20T07:33:28;23.50;;;10.65;;
18681;SDS011;9471;51.168;4.154;2022-08-20T07:35:56;23.85;;;9.65;;
18681;SDS011;9471;51.168;4.154;2022-08-20T07:38:24;23.73;;;9.25;;
18681;SDS011;9471;51.168;4.154;2022-08-20T07:40:54;20.27;;;10.05;;
18681;SDS011;9471;51.168;4.154;2022-08-20T07:43:23;21.88;;;9.85;;
18681;SDS011;9471;51.168;4.154;2022-08-20T07:45:51;21.02;;;9.02;;
18681;SDS011;9471;51.168;4.154;2022-08-20T07:48:21;19.02;;;8.48;;
18681;SDS011;9471;51.168;4.154;2022-08-20T07:50:51;25.40;;;8.77;;
18681;SDS011;9471;51.168;4.154;2022-08-20T07:53:19;28.90;;;9.30;;
18681;SDS011;9471;51.168;4.154;2022-08-20T07:55:46;20.13;;;7.97;;
18681;SDS011;9471;51.168;4.154;2022-08-20T07:58:14;23.15;;;7.60;;
18681;SDS011;9471;51.168;4.154;2022-08-20T08:00:45;19.88;;;8.13;;
18681;SDS011;9471;51.168;4.154;2022-08-20T08:03:12;21.38;;;8.30;;
18681;SDS011;9471;51.168;4.154;2022-08-20T08:05:40;19.17;;;7.75;;
18681;SDS011;9471;51.168;4.154;2022-08-20T08:08:13;24.42;;;8.18;;
18681;SDS011;9471;51.168;4.154;2022-08-20T08:10:42;19.42;;;7.22;;
18681;SDS011;9471;51.168;4.154;2022-08-20T08:13:11;19.30;;;6.97;;
18681;SDS011;9471;51.168;4.154;2022-08-20T08:15:40;17.38;;;6.72;;
18681;SDS011;9471;51.168;4.154;2022-08-20T08:18:15;16.90;;;6.95;;
18681;SDS011;9471;51.168;4.154;2022-08-20T08:20:46;19.20;;;8.02;;
18681;SDS011;9471;51.168;4.154;2022-08-20T08:23:18;23.42;;;7.32;;
18681;SDS011;9471;51.168;4.154;2022-08-20T08:25:46;18.52;;;7.00;;
18681;SDS011;9471;51.168;4.154;2022-08-20T08:28:15;20.60;;;6.70;;
18681;SDS011;9471;51.168;4.154;2022-08-20T08:30:43;19.67;;;7.28;;
18681;SDS011;9471;51.168;4.154;2022-08-20T08:33:16;17.48;;;5.10;;
18681;SDS011;9471;51.168;4.154;2022-08-20T08:35:55;15.18;;;5.53;;
18681;SDS011;9471;51.168;4.154;2022-08-20T08:38:25;15.35;;;4.75;;
18681;SDS011;9471;51.168;4.154;2022-08-20T08:40:53;18.13;;;4.47;;
18681;SDS011;9471;51.168;4.154;2022-08-20T08:43:23;18.38;;;5.53;;
18681;SDS011;9471;51.168;4.154;2022-08-20T08:45:54;16.92;;;4.82;;
18681;SDS011;9471;51.168;4.154;2022-08-20T08:48:27;19.38;;;5.80;;
18681;SDS011;9471;51.168;4.154;2022-08-20T08:50:58;21.35;;;6.78;;
18681;SDS011;9471;51.168;4.154;2022-08-20T08:53:31;26.88;;;8.63;;
18681;SDS011;9471;51.168;4.154;2022-08-20T08:56:02;25.63;;;8.80;;
18681;SDS011;9471;51.168;4.154;2022-08-20T08:58:30;22.38;;;6.90;;
18681;SDS011;9471;51.168;4.154;2022-08-20T09:01:00;23.55;;;7.32;;
18681;SDS011;9471;51.168;4.154;2022-08-20T09:03:30;13.40;;;4.45;;
18681;SDS011;9471;51.168;4.154;2022-08-20T09:06:01;11.55;;;2.92;;
18681;SDS011;9471;51.168;4.154;2022-08-20T09:08:29;13.32;;;3.33;;
18681;SDS011;9471;51.168;4.154;2022-08-20T09:11:02;13.65;;;3.58;;
18681;SDS011;9471;51.168;4.154;2022-08-20T09:13:32;14.77;;;3.35;;
18681;SDS011;9471;51.168;4.154;2022-08-20T09:15:59;18.75;;;3.42;;
18681;SDS011;9471;51.168;4.154;2022-08-20T09:18:26;16.83;;;4.90;;
18681;SDS011;9471;51.168;4.154;2022-08-20T09:20:54;15.10;;;4.03;;
18681;SDS011;9471;51.168;4.154;2022-08-20T09:23:21;13.63;;;3.20;;
18681;SDS011;9471;51.168;4.154;2022-08-20T09:25:49;15.43;;;3.60;;
18681;SDS011;9471;51.168;4.154;2022-08-20T09:28:16;13.85;;;2.58;;
18681;SDS011;9471;51.168;4.154;2022-08-20T09:30:43;16.05;;;3.22;;
18681;SDS011;9471;51.168;4.154;2022-08-20T09:33:10;14.25;;;2.75;;
18681;SDS011;9471;51.168;4.154;2022-08-20T09:35:37;17.58;;;3.75;;
18681;SDS011;9471;51.168;4.154;2022-08-20T09:38:05;16.15;;;3.03;;
18681;SDS011;9471;51.168;4.154;2022-08-20T09:40:32;17.40;;;2.72;;
18681;SDS011;9471;51.168;4.154;2022-08-20T09:43:01;14.55;;;2.40;;
18681;SDS011;9471;51.168;4.154;2022-08-20T09:45:30;15.82;;;3.28;;
18681;SDS011;9471;51.168;4.154;2022-08-20T09:47:57;14.75;;;3.03;;
18681;SDS011;9471;51.168;4.154;2022-08-20T09:50:25;15.75;;;3.15;;
18681;SDS011;9471;51.168;4.154;2022-08-20T09:52:54;11.32;;;2.42;;
18681;SDS011;9471;51.168;4.154;2022-08-20T09:55:25;11.68;;;2.50;;
18681;SDS011;9471;51.168;4.154;2022-08-20T09:57:57;16.77;;;3.38;;
18681;SDS011;9471;51.168;4.154;2022-08-20T10:00:27;12.10;;;3.25;;
18681;SDS011;9471;51.168;4.154;2022-08-20T10:02:54;12.68;;;2.97;;
18681;SDS011;9471;51.168;4.154;2022-08-20T10:05:21;16.40;;;2.75;;
18681;SDS011;9471;51.168;4.154;2022-08-20T10:07:48;12.15;;;2.25;;
18681;SDS011;9471;51.168;4.154;2022-08-20T10:10:15;12.68;;;2.65;;
18681;SDS011;9471;51.168;4.154;2022-08-20T10:12:42;10.45;;;2.90;;
18681;SDS011;9471;51.168;4.154;2022-08-20T10:15:10;16.92;;;5.18;;
18681;SDS011;9471;51.168;4.154;2022-08-20T10:17:39;16.90;;;3.55;;
18681;SDS011;9471;51.168;4.154;2022-08-20T10:20:08;12.18;;;2.67;;
18681;SDS011;9471;51.168;4.154;2022-08-20T10:22:37;14.63;;;2.88;;
18681;SDS011;9471;51.168;4.154;2022-08-20T10:25:04;13.68;;;2.80;;
18681;SDS011;9471;51.168;4.154;2022-08-20T10:27:32;11.02;;;2.30;;
18681;SDS011;9471;51.168;4.154;2022-08-20T10:29:59;16.13;;;3.03;;
18681;SDS011;9471;51.168;4.154;2022-08-20T10:32:26;10.80;;;2.90;;
18681;SDS011;9471;51.168;4.154;2022-08-20T10:34:55;12.82;;;3.22;;
18681;SDS011;9471;51.168;4.154;2022-08-20T10:37:23;11.57;;;3.00;;
18681;SDS011;9471;51.168;4.154;2022-08-20T10:39:50;11.57;;;2.65;;
18681;SDS011;9471;51.168;4.154;2022-08-20T10:42:18;11.10;;;2.40;;
18681;SDS011;9471;51.168;4.154;2022-08-20T10:44:45;13.85;;;5.35;;
18681;SDS011;9471;51.168;4.154;2022-08-20T10:47:14;13.82;;;2.67;;
18681;SDS011;9471;51.168;4.154;2022-08-20T10:49:42;14.73;;;3.50;;
18681;SDS011;9471;51.168;4.154;2022-08-20T10:52:10;14.27;;;3.30;;
18681;SDS011;9471;51.168;4.154;2022-08-20T10:54:37;16.48;;;3.03;;
18681;SDS011;9471;51.168;4.154;2022-08-20T10:57:06;13.93;;;3.70;;
18681;SDS011;9471;51.168;4.154;2022-08-20T10:59:37;13.80;;;4.00;;
18681;SDS011;9471;51.168;4.154;2022-08-20T11:02:05;12.75;;;4.07;;
18681;SDS011;9471;51.168;4.154;2022-08-20T11:04:32;13.10;;;4.25;;
18681;SDS011;9471;51.168;4.154;2022-08-20T11:07:08;14.07;;;3.95;;
18681;SDS011;9471;51.168;4.154;2022-08-20T11:09:42;11.73;;;3.97;;
18681;SDS011;9471;51.168;4.154;2022-08-20T11:12:10;14.73;;;3.55;;
18681;SDS011;9471;51.168;4.154;2022-08-20T11:14:37;12.45;;;3.63;;
18681;SDS011;9471;51.168;4.154;2022-08-20T11:17:04;12.73;;;3.20;;
18681;SDS011;9471;51.168;4.154;2022-08-20T11:19:31;9.88;;;2.80;;
18681;SDS011;9471;51.168;4.154;2022-08-20T11:21:58;10.00;;;2.67;;
18681;SDS011;9471;51.168;4.154;2022-08-20T11:24:26;10.48;;;2.80;;
18681;SDS011;9471;51.168;4.154;2022-08-20T11:26:53;9.35;;;2.58;;
18681;SDS011;9471;51.168;4.154;2022-08-20T11:29:20;11.27;;;2.30;;
18681;SDS011;9471;51.168;4.154;2022-08-20T11:31:48;9.50;;;2.47;;
18681;SDS011;9471;51.168;4.154;2022-08-20T11:34:16;9.45;;;2.30;;
18681;SDS011;9471;51.168;4.154;2022-08-20T11:36:43;8.80;;;2.20;;
18681;SDS011;9471;51.168;4.154;2022-08-20T11:39:11;10.20;;;2.60;;
18681;SDS011;9471;51.168;4.154;2022-08-20T11:41:40;8.32;;;2.50;;
18681;SDS011;9471;51.168;4.154;2022-08-20T11:44:07;13.57;;;4.47;;
18681;SDS011;9471;51.168;4.154;2022-08-20T11:46:34;9.07;;;2.42;;
18681;SDS011;9471;51.168;4.154;2022-08-20T11:49:01;8.10;;;2.63;;
18681;SDS011;9471;51.168;4.154;2022-08-20T11:51:29;7.60;;;2.10;;
18681;SDS011;9471;51.168;4.154;2022-08-20T11:53:55;11.02;;;2.42;;
18681;SDS011;9471;51.168;4.154;2022-08-20T11:56:22;10.40;;;2.10;;
18681;SDS011;9471;51.168;4.154;2022-08-20T11:58:51;10.95;;;2.67;;
18681;SDS011;9471;51.168;4.154;2022-08-20T12:01:18;7.90;;;2.60;;
18681;SDS011;9471;51.168;4.154;2022-08-20T12:03:47;10.77;;;2.60;;
18681;SDS011;9471;51.168;4.154;2022-08-20T12:06:14;8.98;;;2.60;;
18681;SDS011;9471;51.168;4.154;2022-08-20T12:08:41;7.55;;;2.00;;
18681;SDS011;9471;51.168;4.154;2022-08-20T12:11:08;7.32;;;2.28;;
18681;SDS011;9471;51.168;4.154;2022-08-20T12:13:36;9.38;;;2.45;;
18681;SDS011;9471;51.168;4.154;2022-08-20T12:16:05;11.70;;;2.95;;
18681;SDS011;9471;51.168;4.154;2022-08-20T12:18:32;9.75;;;2.60;;
18681;SDS011;9471;51.168;4.154;2022-08-20T12:20:59;11.63;;;2.55;;
18681;SDS011;9471;51.168;4.154;2022-08-20T12:23:26;9.85;;;2.55;;
18681;SDS011;9471;51.168;4.154;2022-08-20T12:25:53;9.93;;;2.13;;
18681;SDS011;9471;51.168;4.154;2022-08-20T12:28:20;8.88;;;2.28;;
18681;SDS011;9471;51.168;4.154;2022-08-20T12:30:47;12.05;;;2.60;;
18681;SDS011;9471;51.168;4.154;2022-08-20T12:33:15;9.05;;;2.17;;
18681;SDS011;9471;51.168;4.154;2022-08-20T12:35:42;8.55;;;2.33;;
18681;SDS011;9471;51.168;4.154;2022-08-20T12:38:09;9.63;;;2.15;;
18681;SDS011;9471;51.168;4.154;2022-08-20T12:40:36;9.60;;;2.38;;
18681;SDS011;9471;51.168;4.154;2022-08-20T12:43:04;11.30;;;2.33;;
18681;SDS011;9471;51.168;4.154;2022-08-20T12:45:31;10.63;;;2.75;;
18681;SDS011;9471;51.168;4.154;2022-08-20T12:48:00;9.43;;;2.00;;
18681;SDS011;9471;51.168;4.154;2022-08-20T12:50:31;10.18;;;2.08;;
18681;SDS011;9471;51.168;4.154;2022-08-20T12:52:59;11.50;;;2.05;;
18681;SDS011;9471;51.168;4.154;2022-08-20T12:55:27;7.68;;;2.40;;
18681;SDS011;9471;51.168;4.154;2022-08-20T12:57:54;8.77;;;2.63;;
18681;SDS011;9471;51.168;4.154;2022-08-20T13:00:25;10.50;;;2.70;;
18681;SDS011;9471;51.168;4.154;2022-08-20T13:02:54;9.68;;;2.63;;
18681;SDS011;9471;51.168;4.154;2022-08-20T13:05:23;10.20;;;2.33;;
18681;SDS011;9471;51.168;4.154;2022-08-20T13:07:51;9.73;;;2.08;;
18681;SDS011;9471;51.168;4.154;2022-08-20T13:10:20;8.57;;;2.42;;
18681;SDS011;9471;51.168;4.154;2022-08-20T13:12:49;8.80;;;2.45;;
18681;SDS011;9471;51.168;4.154;2022-08-20T13:15:16;7.00;;;2.08;;
18681;SDS011;9471;51.168;4.154;2022-08-20T13:17:43;9.82;;;2.95;;
18681;SDS011;9471;51.168;4.154;2022-08-20T13:20:11;7.53;;;2.10;;
18681;SDS011;9471;51.168;4.154;2022-08-20T13:22:39;8.57;;;2.30;;
18681;SDS011;9471;51.168;4.154;2022-08-20T13:25:09;8.52;;;2.03;;
18681;SDS011;9471;51.168;4.154;2022-08-20T13:27:38;7.95;;;2.17;;
18681;SDS011;9471;51.168;4.154;2022-08-20T13:30:06;10.55;;;2.38;;
18681;SDS011;9471;51.168;4.154;2022-08-20T13:32:34;10.10;;;2.40;;
18681;SDS011;9471;51.168;4.154;2022-08-20T13:35:01;10.70;;;2.47;;
18681;SDS011;9471;51.168;4.154;2022-08-20T13:37:29;7.80;;;2.20;;
18681;SDS011;9471;51.168;4.154;2022-08-20T13:39:58;10.25;;;2.55;;
18681;SDS011;9471;51.168;4.154;2022-08-20T13:42:27;12.65;;;2.55;;
18681;SDS011;9471;51.168;4.154;2022-08-20T13:44:54;6.28;;;1.98;;
18681;SDS011;9471;51.168;4.154;2022-08-20T13:47:22;10.35;;;2.75;;
18681;SDS011;9471;51.168;4.154;2022-08-20T13:49:53;8.23;;;2.50;;
18681;SDS011;9471;51.168;4.154;2022-08-20T13:52:21;12.40;;;3.00;;
18681;SDS011;9471;51.168;4.154;2022-08-20T13:54:48;8.35;;;2.67;;
18681;SDS011;9471;51.168;4.154;2022-08-20T13:57:16;8.80;;;2.83;;
18681;SDS011;9471;51.168;4.154;2022-08-20T13:59:46;9.25;;;2.85;;
18681;SDS011;9471;51.168;4.154;2022-08-20T14:02:15;9.23;;;3.17;;
18681;SDS011;9471;51.168;4.154;2022-08-20T14:04:43;8.25;;;2.90;;
18681;SDS011;9471;51.168;4.154;2022-08-20T14:07:11;9.27;;;2.75;;
18681;SDS011;9471;51.168;4.154;2022-08-20T14:09:40;7.90;;;2.72;;
18681;SDS011;9471;51.168;4.154;2022-08-20T14:12:10;9.77;;;3.25;;
18681;SDS011;9471;51.168;4.154;2022-08-20T14:14:38;9.93;;;2.90;;
18681;SDS011;9471;51.168;4.154;2022-08-20T14:17:14;10.30;;;2.85;;
18681;SDS011;9471;51.168;4.154;2022-08-20T14:19:42;8.75;;;2.67;;
18681;SDS011;9471;51.168;4.154;2022-08-20T14:22:09;10.98;;;2.53;;
18681;SDS011;9471;51.168;4.154;2022-08-20T14:24:36;9.52;;;2.90;;
18681;SDS011;9471;51.168;4.154;2022-08-20T14:27:03;8.77;;;2.50;;
18681;SDS011;9471;51.168;4.154;2022-08-20T14:29:32;7.38;;;2.72;;
18681;SDS011;9471;51.168;4.154;2022-08-20T14:31:59;8.77;;;2.33;;
18681;SDS011;9471;51.168;4.154;2022-08-20T14:34:27;10.65;;;2.53;;
18681;SDS011;9471;51.168;4.154;2022-08-20T14:36:56;9.93;;;2.20;;
18681;SDS011;9471;51.168;4.154;2022-08-20T14:39:34;9.30;;;2.75;;
18681;SDS011;9471;51.168;4.154;2022-08-20T14:42:01;11.25;;;4.30;;
18681;SDS011;9471;51.168;4.154;2022-08-20T14:44:28;7.22;;;2.42;;
18681;SDS011;9471;51.168;4.154;2022-08-20T14:46:55;7.72;;;2.28;;
18681;SDS011;9471;51.168;4.154;2022-08-20T14:49:21;8.32;;;2.72;;
18681;SDS011;9471;51.168;4.154;2022-08-20T14:51:50;10.27;;;4.00;;
18681;SDS011;9471;51.168;4.154;2022-08-20T14:54:17;6.65;;;2.25;;
18681;SDS011;9471;51.168;4.154;2022-08-20T14:56:44;6.65;;;2.13;;